CPX797 Details

Departure: Miami International Airport (KMIA)
Arrival: Arturo Merino Benitez International Airport (SCEL) at N/A
Route: EONNS2 EONNS A509 URSUS UA301 UCA UG430 SIA UB510 COLBY UM795 ILTUR UM795 BOKAN UM795 LOBOT UM795 KUSKU UM795 PUPMI UM795 JCL UL302 TOY UV208 SIMOK SIMOK2C
Notes:


Current Weather Information
KMIA 171653Z 14008KT 110V190 10SM SCT035 BKN050 BKN120 BKN250 33/23 A3009 RMK AO2 LTG DSNT NW SLP191 CB DSNT NW T03330228
SCEL 171700Z 26005KT 180V350 CAVOK 16/02 Q1020 NOSIG